sensor_id;sensor_type;location;lat;lon;timestamp;temperature;humidity
4505;DHT22;2265;48.794;9.520;2024-01-11T00:01:12;-3.90;98.00
4505;DHT22;2265;48.794;9.520;2024-01-11T00:03:39;-3.90;98.00
4505;DHT22;2265;48.794;9.520;2024-01-11T00:06:07;-3.90;98.00
4505;DHT22;2265;48.794;9.520;2024-01-11T00:08:34;-3.90;98.00
4505;DHT22;2265;48.794;9.520;2024-01-11T00:11:01;-3.80;98.00
4505;DHT22;2265;48.794;9.520;2024-01-11T00:13:29;-3.80;98.00
4505;DHT22;2265;48.794;9.520;2024-01-11T00:15:56;-3.70;98.00
4505;DHT22;2265;48.794;9.520;2024-01-11T00:18:23;-3.70;98.00
4505;DHT22;2265;48.794;9.520;2024-01-11T00:20:53;-3.80;98.00
4505;DHT22;2265;48.794;9.520;2024-01-11T00:23:22;-3.80;98.00
4505;DHT22;2265;48.794;9.520;2024-01-11T00:25:49;-3.70;98.00
4505;DHT22;2265;48.794;9.520;2024-01-11T00:28:16;-3.60;98.00
4505;DHT22;2265;48.794;9.520;2024-01-11T00:30:43;-3.60;98.00
4505;DHT22;2265;48.794;9.520;2024-01-11T00:33:10;-3.80;98.00
4505;DHT22;2265;48.794;9.520;2024-01-11T00:35:37;-3.90;98.00
4505;DHT22;2265;48.794;9.520;2024-01-11T00:38:05;-4.00;98.00
4505;DHT22;2265;48.794;9.520;2024-01-11T00:40:42;-4.00;98.00
4505;DHT22;2265;48.794;9.520;2024-01-11T00:43:09;-3.90;98.00
4505;DHT22;2265;48.794;9.520;2024-01-11T00:45:36;-3.70;98.00
4505;DHT22;2265;48.794;9.520;2024-01-11T00:48:04;-3.70;98.00
4505;DHT22;2265;48.794;9.520;2024-01-11T00:50:32;-3.80;98.00
4505;DHT22;2265;48.794;9.520;2024-01-11T00:52:59;-4.00;98.00
4505;DHT22;2265;48.794;9.520;2024-01-11T00:55:27;-4.00;98.00
4505;DHT22;2265;48.794;9.520;2024-01-11T00:57:56;-4.10;98.00
4505;DHT22;2265;48.794;9.520;2024-01-11T01:00:23;-3.90;98.00
4505;DHT22;2265;48.794;9.520;2024-01-11T01:02:50;-3.90;98.00
4505;DHT22;2265;48.794;9.520;2024-01-11T01:05:20;-3.90;98.00
4505;DHT22;2265;48.794;9.520;2024-01-11T01:07:47;-3.90;98.00
4505;DHT22;2265;48.794;9.520;2024-01-11T01:10:14;-4.00;98.00
4505;DHT22;2265;48.794;9.520;2024-01-11T01:12:41;-4.00;98.00
4505;DHT22;2265;48.794;9.520;2024-01-11T01:15:09;-3.90;98.00
4505;DHT22;2265;48.794;9.520;2024-01-11T01:17:37;-3.90;98.00
4505;DHT22;2265;48.794;9.520;2024-01-11T01:20:05;-3.90;98.00
4505;DHT22;2265;48.794;9.520;2024-01-11T01:22:32;-3.80;98.00
4505;DHT22;2265;48.794;9.520;2024-01-11T01:25:00;-3.70;98.00
4505;DHT22;2265;48.794;9.520;2024-01-11T01:27:28;-3.70;98.00
4505;DHT22;2265;48.794;9.520;2024-01-11T01:29:55;-3.80;98.00
4505;DHT22;2265;48.794;9.520;2024-01-11T01:32:23;-3.70;98.00
4505;DHT22;2265;48.794;9.520;2024-01-11T01:34:51;-3.80;98.00
4505;DHT22;2265;48.794;9.520;2024-01-11T01:37:18;-3.90;98.00
4505;DHT22;2265;48.794;9.520;2024-01-11T01:39:45;-4.00;98.00
4505;DHT22;2265;48.794;9.520;2024-01-11T01:42:12;-4.00;98.00
4505;DHT22;2265;48.794;9.520;2024-01-11T01:44:39;-4.10;98.00
4505;DHT22;2265;48.794;9.520;2024-01-11T01:47:08;-4.00;98.00
4505;DHT22;2265;48.794;9.520;2024-01-11T01:49:37;-4.10;98.00
4505;DHT22;2265;48.794;9.520;2024-01-11T01:52:06;-4.10;98.00
4505;DHT22;2265;48.794;9.520;2024-01-11T01:54:32;-4.10;98.00
4505;DHT22;2265;48.794;9.520;2024-01-11T01:57:00;-4.10;98.00
4505;DHT22;2265;48.794;9.520;2024-01-11T01:59:29;-4.10;98.00
4505;DHT22;2265;48.794;9.520;2024-01-11T02:01:57;-4.20;98.00
4505;DHT22;2265;48.794;9.520;2024-01-11T02:04:25;-4.30;98.00
4505;DHT22;2265;48.794;9.520;2024-01-11T02:06:54;-4.40;98.00
4505;DHT22;2265;48.794;9.520;2024-01-11T02:09:22;-4.30;98.00
4505;DHT22;2265;48.794;9.520;2024-01-11T02:11:52;-4.30;98.00
4505;DHT22;2265;48.794;9.520;2024-01-11T02:14:20;-4.40;98.00
4505;DHT22;2265;48.794;9.520;2024-01-11T02:16:47;-4.50;98.00
4505;DHT22;2265;48.794;9.520;2024-01-11T02:19:17;-4.50;98.00
4505;DHT22;2265;48.794;9.520;2024-01-11T02:21:46;-4.60;98.00
4505;DHT22;2265;48.794;9.520;2024-01-11T02:24:16;-4.70;98.00
4505;DHT22;2265;48.794;9.520;2024-01-11T02:26:58;-4.70;98.00
4505;DHT22;2265;48.794;9.520;2024-01-11T02:29:27;-4.60;98.00
4505;DHT22;2265;48.794;9.520;2024-01-11T02:31:54;-4.50;98.00
4505;DHT22;2265;48.794;9.520;2024-01-11T02:34:22;-4.50;98.00
4505;DHT22;2265;48.794;9.520;2024-01-11T02:36:50;-4.40;98.00
4505;DHT22;2265;48.794;9.520;2024-01-11T02:39:19;-4.40;98.00
4505;DHT22;2265;48.794;9.520;2024-01-11T02:41:48;-4.40;98.00
4505;DHT22;2265;48.794;9.520;2024-01-11T02:44:16;-4.60;98.00
4505;DHT22;2265;48.794;9.520;2024-01-11T02:46:43;-4.50;98.00
4505;DHT22;2265;48.794;9.520;2024-01-11T02:49:11;-4.40;98.00
4505;DHT22;2265;48.794;9.520;2024-01-11T02:51:38;-4.30;98.00
4505;DHT22;2265;48.794;9.520;2024-01-11T02:54:05;-4.30;98.00
4505;DHT22;2265;48.794;9.520;2024-01-11T02:56:33;-4.50;98.00
4505;DHT22;2265;48.794;9.520;2024-01-11T02:59:01;-4.60;98.00
4505;DHT22;2265;48.794;9.520;2024-01-11T03:01:28;-4.70;98.00
4505;DHT22;2265;48.794;9.520;2024-01-11T03:03:55;-4.70;98.00
4505;DHT22;2265;48.794;9.520;2024-01-11T03:06:23;-4.60;98.00
4505;DHT22;2265;48.794;9.520;2024-01-11T03:08:50;-4.70;98.00
4505;DHT22;2265;48.794;9.520;2024-01-11T03:11:18;-4.80;98.00
4505;DHT22;2265;48.794;9.520;2024-01-11T03:13:46;-4.90;98.00
4505;DHT22;2265;48.794;9.520;2024-01-11T03:16:13;-4.70;98.00
4505;DHT22;2265;48.794;9.520;2024-01-11T03:18:41;-4.50;98.00
4505;DHT22;2265;48.794;9.520;2024-01-11T03:21:09;-4.40;98.00
4505;DHT22;2265;48.794;9.520;2024-01-11T03:23:36;-4.20;98.00
4505;DHT22;2265;48.794;9.520;2024-01-11T03:26:05;-4.20;98.00
4505;DHT22;2265;48.794;9.520;2024-01-11T03:28:38;-4.30;98.00
4505;DHT22;2265;48.794;9.520;2024-01-11T03:31:07;-4.40;98.00
4505;DHT22;2265;48.794;9.520;2024-01-11T03:33:34;-4.60;98.00
4505;DHT22;2265;48.794;9.520;2024-01-11T03:36:06;-4.70;98.00
4505;DHT22;2265;48.794;9.520;2024-01-11T03:38:34;-4.70;98.00
4505;DHT22;2265;48.794;9.520;2024-01-11T03:41:01;-4.70;98.00
4505;DHT22;2265;48.794;9.520;2024-01-11T03:43:28;-4.70;98.00
4505;DHT22;2265;48.794;9.520;2024-01-11T03:45:55;-4.80;98.00
4505;DHT22;2265;48.794;9.520;2024-01-11T03:48:24;-4.80;98.00
4505;DHT22;2265;48.794;9.520;2024-01-11T03:50:51;-4.80;98.00
4505;DHT22;2265;48.794;9.520;2024-01-11T03:53:20;-5.00;98.00
4505;DHT22;2265;48.794;9.520;2024-01-11T03:55:47;-5.00;98.00
4505;DHT22;2265;48.794;9.520;2024-01-11T03:58:14;-4.90;98.00
4505;DHT22;2265;48.794;9.520;2024-01-11T04:00:42;-4.80;98.00
4505;DHT22;2265;48.794;9.520;2024-01-11T04:03:11;-4.80;98.00
4505;DHT22;2265;48.794;9.520;2024-01-11T04:05:40;-4.90;98.00
4505;DHT22;2265;48.794;9.520;2024-01-11T04:08:07;-4.80;98.00
4505;DHT22;2265;48.794;9.520;2024-01-11T04:10:34;-4.80;98.00
4505;DHT22;2265;48.794;9.520;2024-01-11T04:13:02;-4.90;98.00
4505;DHT22;2265;48.794;9.520;2024-01-11T04:15:29;-4.90;98.00
4505;DHT22;2265;48.794;9.520;2024-01-11T04:17:56;-5.00;98.00
4505;DHT22;2265;48.794;9.520;2024-01-11T04:20:23;-5.00;98.00
4505;DHT22;2265;48.794;9.520;2024-01-11T04:22:52;-5.10;98.00
4505;DHT22;2265;48.794;9.520;2024-01-11T04:25:19;-5.10;98.00
4505;DHT22;2265;48.794;9.520;2024-01-11T04:27:47;-5.10;98.00
4505;DHT22;2265;48.794;9.520;2024-01-11T04:30:14;-5.10;98.00
4505;DHT22;2265;48.794;9.520;2024-01-11T04:32:41;-5.10;98.00
4505;DHT22;2265;48.794;9.520;2024-01-11T04:35:08;-5.20;98.00
4505;DHT22;2265;48.794;9.520;2024-01-11T04:37:38;-5.30;98.00
4505;DHT22;2265;48.794;9.520;2024-01-11T04:40:10;-5.30;98.00
4505;DHT22;2265;48.794;9.520;2024-01-11T04:42:38;-5.10;98.00
4505;DHT22;2265;48.794;9.520;2024-01-11T04:45:06;-5.00;98.00
4505;DHT22;2265;48.794;9.520;2024-01-11T04:47:33;-5.00;98.00
4505;DHT22;2265;48.794;9.520;2024-01-11T04:50:00;-5.00;98.00
4505;DHT22;2265;48.794;9.520;2024-01-11T04:52:27;-5.00;98.00
4505;DHT22;2265;48.794;9.520;2024-01-11T04:54:54;-4.90;98.00
4505;DHT22;2265;48.794;9.520;2024-01-11T04:57:23;-4.90;98.00
4505;DHT22;2265;48.794;9.520;2024-01-11T04:59:50;-5.00;98.00
4505;DHT22;2265;48.794;9.520;2024-01-11T05:02:17;-5.20;98.00
4505;DHT22;2265;48.794;9.520;2024-01-11T05:04:44;-5.20;98.00
4505;DHT22;2265;48.794;9.520;2024-01-11T05:07:11;-5.10;98.00
4505;DHT22;2265;48.794;9.520;2024-01-11T05:09:38;-5.00;98.00
4505;DHT22;2265;48.794;9.520;2024-01-11T05:12:05;-4.90;98.00
4505;DHT22;2265;48.794;9.520;2024-01-11T05:14:34;-4.80;98.00
4505;DHT22;2265;48.794;9.520;2024-01-11T05:17:01;-4.80;98.00
4505;DHT22;2265;48.794;9.520;2024-01-11T05:19:28;-4.70;98.00
4505;DHT22;2265;48.794;9.520;2024-01-11T05:21:55;-4.60;98.00
4505;DHT22;2265;48.794;9.520;2024-01-11T05:24:22;-4.60;98.00
4505;DHT22;2265;48.794;9.520;2024-01-11T05:26:49;-4.50;98.00
4505;DHT22;2265;48.794;9.520;2024-01-11T05:29:17;-4.50;98.00
4505;DHT22;2265;48.794;9.520;2024-01-11T05:31:46;-4.70;98.00
4505;DHT22;2265;48.794;9.520;2024-01-11T05:34:13;-4.80;98.00
4505;DHT22;2265;48.794;9.520;2024-01-11T05:36:40;-4.90;98.00
4505;DHT22;2265;48.794;9.520;2024-01-11T05:39:07;-5.00;98.00
4505;DHT22;2265;48.794;9.520;2024-01-11T05:41:34;-5.00;98.00
4505;DHT22;2265;48.794;9.520;2024-01-11T05:44:02;-5.10;98.00
4505;DHT22;2265;48.794;9.520;2024-01-11T05:46:30;-5.00;98.00
4505;DHT22;2265;48.794;9.520;2024-01-11T05:48:59;-4.80;98.00
4505;DHT22;2265;48.794;9.520;2024-01-11T05:51:26;-4.80;98.00
4505;DHT22;2265;48.794;9.520;2024-01-11T05:53:53;-4.90;98.00
4505;DHT22;2265;48.794;9.520;2024-01-11T05:56:21;-4.80;98.00
4505;DHT22;2265;48.794;9.520;2024-01-11T05:58:48;-4.90;98.00
4505;DHT22;2265;48.794;9.520;2024-01-11T06:01:17;-4.90;98.00
4505;DHT22;2265;48.794;9.520;2024-01-11T06:03:44;-5.00;98.00
4505;DHT22;2265;48.794;9.520;2024-01-11T06:06:12;-5.00;98.00
4505;DHT22;2265;48.794;9.520;2024-01-11T06:08:39;-5.00;98.00
4505;DHT22;2265;48.794;9.520;2024-01-11T06:11:08;-5.20;98.00
4505;DHT22;2265;48.794;9.520;2024-01-11T06:13:35;-5.40;98.00
4505;DHT22;2265;48.794;9.520;2024-01-11T06:16:02;-5.40;98.00
4505;DHT22;2265;48.794;9.520;2024-01-11T06:18:29;-5.40;98.00
4505;DHT22;2265;48.794;9.520;2024-01-11T06:20:57;-5.40;98.00
4505;DHT22;2265;48.794;9.520;2024-01-11T06:23:27;-5.50;98.00
4505;DHT22;2265;48.794;9.520;2024-01-11T06:25:54;-5.40;98.00
4505;DHT22;2265;48.794;9.520;2024-01-11T06:28:21;-5.30;98.00
4505;DHT22;2265;48.794;9.520;2024-01-11T06:30:48;-5.40;98.00
4505;DHT22;2265;48.794;9.520;2024-01-11T06:33:15;-5.40;98.00
4505;DHT22;2265;48.794;9.520;2024-01-11T06:35:43;-5.50;98.00
4505;DHT22;2265;48.794;9.520;2024-01-11T06:38:10;-5.60;98.00
4505;DHT22;2265;48.794;9.520;2024-01-11T06:40:39;-5.50;98.00
4505;DHT22;2265;48.794;9.520;2024-01-11T06:43:06;-5.40;98.00
4505;DHT22;2265;48.794;9.520;2024-01-11T06:45:33;-5.40;98.00
4505;DHT22;2265;48.794;9.520;2024-01-11T06:48:00;-5.40;98.00
4505;DHT22;2265;48.794;9.520;2024-01-11T06:50:28;-5.40;98.00
4505;DHT22;2265;48.794;9.520;2024-01-11T06:52:55;-5.40;98.00
4505;DHT22;2265;48.794;9.520;2024-01-11T06:55:22;-5.50;98.00
4505;DHT22;2265;48.794;9.520;2024-01-11T06:57:50;-5.50;98.00
4505;DHT22;2265;48.794;9.520;2024-01-11T07:00:18;-5.60;98.00
4505;DHT22;2265;48.794;9.520;2024-01-11T07:02:45;-5.60;98.00
4505;DHT22;2265;48.794;9.520;2024-01-11T07:05:12;-5.70;98.00
4505;DHT22;2265;48.794;9.520;2024-01-11T07:07:39;-5.60;98.00
4505;DHT22;2265;48.794;9.520;2024-01-11T07:10:07;-5.50;98.00
4505;DHT22;2265;48.794;9.520;2024-01-11T07:12:36;-5.40;98.00
4505;DHT22;2265;48.794;9.520;2024-01-11T07:15:06;-5.30;98.00
4505;DHT22;2265;48.794;9.520;2024-01-11T07:17:34;-5.30;98.00
4505;DHT22;2265;48.794;9.520;2024-01-11T07:20:01;-5.40;98.00
4505;DHT22;2265;48.794;9.520;2024-01-11T07:22:29;-5.30;98.00
4505;DHT22;2265;48.794;9.520;2024-01-11T07:24:58;-5.30;98.00
4505;DHT22;2265;48.794;9.520;2024-01-11T07:27:29;-5.40;98.00
4505;DHT22;2265;48.794;9.520;2024-01-11T07:29:57;-5.40;98.00
4505;DHT22;2265;48.794;9.520;2024-01-11T07:32:25;-5.30;98.00
4505;DHT22;2265;48.794;9.520;2024-01-11T07:34:52;-5.40;98.00
4505;DHT22;2265;48.794;9.520;2024-01-11T07:37:19;-5.40;98.00
4505;DHT22;2265;48.794;9.520;2024-01-11T07:39:46;-5.30;98.00
4505;DHT22;2265;48.794;9.520;2024-01-11T07:42:14;-5.20;98.00
4505;DHT22;2265;48.794;9.520;2024-01-11T07:44:41;-5.10;98.00
4505;DHT22;2265;48.794;9.520;2024-01-11T07:47:08;-5.30;98.00
4505;DHT22;2265;48.794;9.520;2024-01-11T07:49:37;-5.30;98.00
4505;DHT22;2265;48.794;9.520;2024-01-11T07:52:05;-5.30;98.00
4505;DHT22;2265;48.794;9.520;2024-01-11T07:54:32;-5.10;98.00
4505;DHT22;2265;48.794;9.520;2024-01-11T07:56:59;-5.10;98.00
4505;DHT22;2265;48.794;9.520;2024-01-11T07:59:31;-5.10;98.00
4505;DHT22;2265;48.794;9.520;2024-01-11T08:02:00;-5.10;98.00
4505;DHT22;2265;48.794;9.520;2024-01-11T08:04:27;-5.20;98.00
4505;DHT22;2265;48.794;9.520;2024-01-11T08:06:56;-5.10;98.00
4505;DHT22;2265;48.794;9.520;2024-01-11T08:09:25;-5.00;98.00
4505;DHT22;2265;48.794;9.520;2024-01-11T08:11:52;-4.80;98.00
4505;DHT22;2265;48.794;9.520;2024-01-11T08:14:20;-4.70;98.00
4505;DHT22;2265;48.794;9.520;2024-01-11T08:16:47;-4.90;98.00
4505;DHT22;2265;48.794;9.520;2024-01-11T08:19:14;-4.90;98.00
4505;DHT22;2265;48.794;9.520;2024-01-11T08:21:42;-5.00;98.00
4505;DHT22;2265;48.794;9.520;2024-01-11T08:24:10;-5.10;98.00
4505;DHT22;2265;48.794;9.520;2024-01-11T08:26:38;-5.10;98.00
4505;DHT22;2265;48.794;9.520;2024-01-11T08:29:05;-5.00;98.00
4505;DHT22;2265;48.794;9.520;2024-01-11T08:31:33;-4.90;98.00
4505;DHT22;2265;48.794;9.520;2024-01-11T08:34:01;-4.80;98.00
4505;DHT22;2265;48.794;9.520;2024-01-11T08:36:31;-4.60;98.00
4505;DHT22;2265;48.794;9.520;2024-01-11T08:38:59;-4.20;98.00
4505;DHT22;2265;48.794;9.520;2024-01-11T08:41:28;-4.10;98.00
4505;DHT22;2265;48.794;9.520;2024-01-11T08:43:55;-4.20;98.00
4505;DHT22;2265;48.794;9.520;2024-01-11T08:46:25;-4.10;98.00
4505;DHT22;2265;48.794;9.520;2024-01-11T08:48:53;-4.00;98.00
4505;DHT22;2265;48.794;9.520;2024-01-11T08:51:22;-4.00;98.00
4505;DHT22;2265;48.794;9.520;2024-01-11T08:53:49;-4.00;98.00
4505;DHT22;2265;48.794;9.520;2024-01-11T08:56:18;-4.00;98.00
4505;DHT22;2265;48.794;9.520;2024-01-11T08:58:47;-3.90;98.00
4505;DHT22;2265;48.794;9.520;2024-01-11T09:01:15;-3.90;98.00
4505;DHT22;2265;48.794;9.520;2024-01-11T09:03:42;-3.90;98.00
4505;DHT22;2265;48.794;9.520;2024-01-11T09:06:09;-4.00;98.00
4505;DHT22;2265;48.794;9.520;2024-01-11T09:08:37;-3.80;98.00
4505;DHT22;2265;48.794;9.520;2024-01-11T09:11:04;-3.60;98.00
4505;DHT22;2265;48.794;9.520;2024-01-11T09:13:31;-3.60;98.00
4505;DHT22;2265;48.794;9.520;2024-01-11T09:15:59;-3.60;98.00
4505;DHT22;2265;48.794;9.520;2024-01-11T09:18:27;-3.50;98.00
4505;DHT22;2265;48.794;9.520;2024-01-11T09:20:54;-3.40;98.00
4505;DHT22;2265;48.794;9.520;2024-01-11T09:23:21;-3.40;98.00
4505;DHT22;2265;48.794;9.520;2024-01-11T09:25:50;-3.40;98.00
4505;DHT22;2265;48.794;9.520;2024-01-11T09:28:17;-3.30;98.00
4505;DHT22;2265;48.794;9.520;2024-01-11T09:30:47;-3.20;98.00
4505;DHT22;2265;48.794;9.520;2024-01-11T09:33:15;-3.10;98.00
4505;DHT22;2265;48.794;9.520;2024-01-11T09:35:42;-3.20;98.00
4505;DHT22;2265;48.794;9.520;2024-01-11T09:38:09;-3.20;98.00
4505;DHT22;2265;48.794;9.520;2024-01-11T09:40:38;-3.10;98.00
4505;DHT22;2265;48.794;9.520;2024-01-11T09:43:06;-3.00;98.00
4505;DHT22;2265;48.794;9.520;2024-01-11T09:45:37;-3.00;98.00
4505;DHT22;2265;48.794;9.520;2024-01-11T09:48:05;-2.90;98.00
4505;DHT22;2265;48.794;9.520;2024-01-11T09:50:35;-2.90;98.00
4505;DHT22;2265;48.794;9.520;2024-01-11T09:53:03;-2.80;98.00
4505;DHT22;2265;48.794;9.520;2024-01-11T09:55:31;-2.80;98.00
4505;DHT22;2265;48.794;9.520;2024-01-11T09:57:59;-2.60;98.00
4505;DHT22;2265;48.794;9.520;2024-01-11T10:00:28;-2.40;98.00
4505;DHT22;2265;48.794;9.520;2024-01-11T10:02:55;-2.30;98.00
4505;DHT22;2265;48.794;9.520;2024-01-11T10:05:22;-2.30;98.00
4505;DHT22;2265;48.794;9.520;2024-01-11T10:07:51;-2.30;98.00
4505;DHT22;2265;48.794;9.520;2024-01-11T10:10:18;-2.30;98.00
4505;DHT22;2265;48.794;9.520;2024-01-11T10:12:45;-2.30;98.00
4505;DHT22;2265;48.794;9.520;2024-01-11T10:15:14;-2.20;98.00
4505;DHT22;2265;48.794;9.520;2024-01-11T10:17:42;-2.20;98.00
4505;DHT22;2265;48.794;9.520;2024-01-11T10:20:11;-2.20;98.00
4505;DHT22;2265;48.794;9.520;2024-01-11T10:22:39;-2.10;98.00
4505;DHT22;2265;48.794;9.520;2024-01-11T10:25:10;-1.10;98.00
4505;DHT22;2265;48.794;9.520;2024-01-11T10:27:38;1.60;98.00
4505;DHT22;2265;48.794;9.520;2024-01-11T10:30:08;3.40;98.00
4505;DHT22;2265;48.794;9.520;2024-01-11T10:32:35;3.60;98.00
4505;DHT22;2265;48.794;9.520;2024-01-11T10:35:02;3.20;98.00
4505;DHT22;2265;48.794;9.520;2024-01-11T10:37:31;2.50;98.00
4505;DHT22;2265;48.794;9.520;2024-01-11T10:40:03;2.00;98.00
4505;DHT22;2265;48.794;9.520;2024-01-11T10:42:41;1.50;98.00
4505;DHT22;2265;48.794;9.520;2024-01-11T10:45:13;1.00;98.00
4505;DHT22;2265;48.794;9.520;2024-01-11T10:47:47;0.70;98.00
4505;DHT22;2265;48.794;9.520;2024-01-11T10:50:18;0.30;98.00
4505;DHT22;2265;48.794;9.520;2024-01-11T10:52:56;0.10;98.00
4505;DHT22;2265;48.794;9.520;2024-01-11T10:55:29;0.00;98.00
4505;DHT22;2265;48.794;9.520;2024-01-11T10:58:00;-0.10;98.00
4505;DHT22;2265;48.794;9.520;2024-01-11T11:00:27;0.00;98.00
4505;DHT22;2265;48.794;9.520;2024-01-11T11:02:55;-0.10;98.00
4505;DHT22;2265;48.794;9.520;2024-01-11T11:05:34;-0.10;98.00
4505;DHT22;2265;48.794;9.520;2024-01-11T11:08:02;-0.10;98.00
4505;DHT22;2265;48.794;9.520;2024-01-11T11:10:32;0.00;98.00
4505;DHT22;2265;48.794;9.520;2024-01-11T11:13:02;0.00;98.00
4505;DHT22;2265;48.794;9.520;2024-01-11T11:15:32;0.00;98.00
4505;DHT22;2265;48.794;9.520;2024-01-11T11:18:00;0.20;98.00
4505;DHT22;2265;48.794;9.520;2024-01-11T11:20:28;0.20;98.00
4505;DHT22;2265;48.794;9.520;2024-01-11T11:23:03;0.30;98.00
4505;DHT22;2265;48.794;9.520;2024-01-11T11:25:33;0.50;98.00
4505;DHT22;2265;48.794;9.520;2024-01-11T11:28:06;0.70;98.00
4505;DHT22;2265;48.794;9.520;2024-01-11T11:30:37;0.80;98.00
4505;DHT22;2265;48.794;9.520;2024-01-11T11:33:09;1.00;98.00
4505;DHT22;2265;48.794;9.520;2024-01-11T11:35:36;1.10;98.00
4505;DHT22;2265;48.794;9.520;2024-01-11T11:38:04;1.10;98.00
4505;DHT22;2265;48.794;9.520;2024-01-11T11:40:32;1.20;98.00
4505;DHT22;2265;48.794;9.520;2024-01-11T11:43:06;1.20;98.00
4505;DHT22;2265;48.794;9.520;2024-01-11T11:45:33;1.40;98.00
4505;DHT22;2265;48.794;9.520;2024-01-11T11:48:00;1.50;98.00
4505;DHT22;2265;48.794;9.520;2024-01-11T11:50:29;1.60;98.00
4505;DHT22;2265;48.794;9.520;2024-01-11T11:52:57;1.70;98.00
4505;DHT22;2265;48.794;9.520;2024-01-11T11:55:25;1.70;98.00
4505;DHT22;2265;48.794;9.520;2024-01-11T11:57:52;1.70;98.00
4505;DHT22;2265;48.794;9.520;2024-01-11T12:00:20;1.80;98.00
4505;DHT22;2265;48.794;9.520;2024-01-11T12:02:50;2.00;98.00
4505;DHT22;2265;48.794;9.520;2024-01-11T12:05:18;2.10;98.00
4505;DHT22;2265;48.794;9.520;2024-01-11T12:07:45;2.00;98.00
4505;DHT22;2265;48.794;9.520;2024-01-11T12:10:14;2.10;98.00
4505;DHT22;2265;48.794;9.520;2024-01-11T12:12:41;2.00;98.00
4505;DHT22;2265;48.794;9.520;2024-01-11T12:15:08;2.00;98.00
4505;DHT22;2265;48.794;9.520;2024-01-11T12:17:38;2.00;98.00
4505;DHT22;2265;48.794;9.520;2024-01-11T12:20:09;2.10;98.00
4505;DHT22;2265;48.794;9.520;2024-01-11T12:22:36;2.30;98.00
4505;DHT22;2265;48.794;9.520;2024-01-11T12:25:04;2.50;98.00
4505;DHT22;2265;48.794;9.520;2024-01-11T12:27:32;2.70;98.00
4505;DHT22;2265;48.794;9.520;2024-01-11T12:30:01;3.00;98.00
4505;DHT22;2265;48.794;9.520;2024-01-11T12:32:28;3.30;98.00
4505;DHT22;2265;48.794;9.520;2024-01-11T12:34:57;3.60;98.00
4505;DHT22;2265;48.794;9.520;2024-01-11T12:37:24;3.90;98.00
4505;DHT22;2265;48.794;9.520;2024-01-11T12:39:57;4.00;98.00
4505;DHT22;2265;48.794;9.520;2024-01-11T12:42:25;4.30;98.00
4505;DHT22;2265;48.794;9.520;2024-01-11T12:44:52;4.50;98.00
4505;DHT22;2265;48.794;9.520;2024-01-11T12:47:19;4.70;98.00
4505;DHT22;2265;48.794;9.520;2024-01-11T12:49:46;4.80;98.00
4505;DHT22;2265;48.794;9.520;2024-01-11T12:52:24;5.00;98.00
4505;DHT22;2265;48.794;9.520;2024-01-11T12:54:55;5.20;98.00
4505;DHT22;2265;48.794;9.520;2024-01-11T12:57:23;5.20;98.00
4505;DHT22;2265;48.794;9.520;2024-01-11T12:59:51;5.00;98.00
4505;DHT22;2265;48.794;9.520;2024-01-11T13:02:18;5.20;98.00
4505;DHT22;2265;48.794;9.520;2024-01-11T13:04:45;5.60;98.00
4505;DHT22;2265;48.794;9.520;2024-01-11T13:07:12;5.70;98.00
4505;DHT22;2265;48.794;9.520;2024-01-11T13:09:42;5.70;98.00
4505;DHT22;2265;48.794;9.520;2024-01-11T13:12:09;5.70;98.00
4505;DHT22;2265;48.794;9.520;2024-01-11T13:14:37;5.70;98.00
4505;DHT22;2265;48.794;9.520;2024-01-11T13:17:05;5.60;98.00
4505;DHT22;2265;48.794;9.520;2024-01-11T13:19:33;5.60;98.00
4505;DHT22;2265;48.794;9.520;2024-01-11T13:22:00;5.60;98.00
4505;DHT22;2265;48.794;9.520;2024-01-11T13:24:28;5.60;98.00
4505;DHT22;2265;48.794;9.520;2024-01-11T13:26:56;5.80;98.00
4505;DHT22;2265;48.794;9.520;2024-01-11T13:29:23;5.80;98.00
4505;DHT22;2265;48.794;9.520;2024-01-11T13:31:51;5.60;98.00
4505;DHT22;2265;48.794;9.520;2024-01-11T13:34:18;5.50;98.00
4505;DHT22;2265;48.794;9.520;2024-01-11T13:36:45;4.80;98.00
4505;DHT22;2265;48.794;9.520;2024-01-11T13:39:16;4.40;98.00
4505;DHT22;2265;48.794;9.520;2024-01-11T13:41:46;4.20;98.00
4505;DHT22;2265;48.794;9.520;2024-01-11T13:44:14;4.20;98.00
4505;DHT22;2265;48.794;9.520;2024-01-11T13:46:41;4.10;98.00
4505;DHT22;2265;48.794;9.520;2024-01-11T13:49:09;4.00;98.00
4505;DHT22;2265;48.794;9.520;2024-01-11T13:51:37;3.80;98.00
4505;DHT22;2265;48.794;9.520;2024-01-11T13:54:04;3.70;98.00
4505;DHT22;2265;48.794;9.520;2024-01-11T13:56:32;3.70;98.00
4505;DHT22;2265;48.794;9.520;2024-01-11T13:58:59;3.70;98.00
4505;DHT22;2265;48.794;9.520;2024-01-11T14:01:31;3.60;98.00
4505;DHT22;2265;48.794;9.520;2024-01-11T14:03:58;3.70;98.00
4505;DHT22;2265;48.794;9.520;2024-01-11T14:06:25;3.60;98.00
4505;DHT22;2265;48.794;9.520;2024-01-11T14:08:52;3.60;98.00
4505;DHT22;2265;48.794;9.520;2024-01-11T14:11:19;3.60;98.00
4505;DHT22;2265;48.794;9.520;2024-01-11T14:13:46;3.60;98.00
4505;DHT22;2265;48.794;9.520;2024-01-11T14:16:14;4.00;98.00
4505;DHT22;2265;48.794;9.520;2024-01-11T14:18:43;4.00;98.00
4505;DHT22;2265;48.794;9.520;2024-01-11T14:21:10;3.90;98.00
4505;DHT22;2265;48.794;9.520;2024-01-11T14:23:37;3.80;98.00
4505;DHT22;2265;48.794;9.520;2024-01-11T14:26:07;3.60;98.00
4505;DHT22;2265;48.794;9.520;2024-01-11T14:28:34;3.30;98.00
4505;DHT22;2265;48.794;9.520;2024-01-11T14:31:08;3.10;98.00
4505;DHT22;2265;48.794;9.520;2024-01-11T14:33:36;3.00;98.00
4505;DHT22;2265;48.794;9.520;2024-01-11T14:36:05;2.90;98.00
4505;DHT22;2265;48.794;9.520;2024-01-11T14:38:32;2.90;98.00
4505;DHT22;2265;48.794;9.520;2024-01-11T14:40:59;2.70;98.00
4505;DHT22;2265;48.794;9.520;2024-01-11T14:43:26;2.50;98.00
4505;DHT22;2265;48.794;9.520;2024-01-11T14:45:53;2.40;98.00
4505;DHT22;2265;48.794;9.520;2024-01-11T14:48:20;2.60;98.00
4505;DHT22;2265;48.794;9.520;2024-01-11T14:50:48;2.70;98.00
4505;DHT22;2265;48.794;9.520;2024-01-11T14:53:18;2.70;98.00
4505;DHT22;2265;48.794;9.520;2024-01-11T14:55:45;2.70;98.00
4505;DHT22;2265;48.794;9.520;2024-01-11T14:58:12;2.60;98.00
4505;DHT22;2265;48.794;9.520;2024-01-11T15:00:39;2.60;98.00
4505;DHT22;2265;48.794;9.520;2024-01-11T15:03:06;2.90;98.00
4505;DHT22;2265;48.794;9.520;2024-01-11T15:05:33;3.20;98.00
4505;DHT22;2265;48.794;9.520;2024-01-11T15:08:02;3.50;98.00
4505;DHT22;2265;48.794;9.520;2024-01-11T15:10:30;3.30;98.00
4505;DHT22;2265;48.794;9.520;2024-01-11T15:12:58;2.90;98.00
4505;DHT22;2265;48.794;9.520;2024-01-11T15:15:25;2.50;98.00
4505;DHT22;2265;48.794;9.520;2024-01-11T15:17:52;2.30;98.00
4505;DHT22;2265;48.794;9.520;2024-01-11T15:20:19;2.00;98.00
4505;DHT22;2265;48.794;9.520;2024-01-11T15:22:47;1.80;98.00
4505;DHT22;2265;48.794;9.520;2024-01-11T15:25:14;1.60;98.00
4505;DHT22;2265;48.794;9.520;2024-01-11T15:27:44;1.40;98.00
4505;DHT22;2265;48.794;9.520;2024-01-11T15:30:11;1.20;98.00
4505;DHT22;2265;48.794;9.520;2024-01-11T15:32:39;1.00;98.00
4505;DHT22;2265;48.794;9.520;2024-01-11T15:35:06;1.00;98.00
4505;DHT22;2265;48.794;9.520;2024-01-11T15:37:34;0.90;98.00
4505;DHT22;2265;48.794;9.520;2024-01-11T15:40:01;0.90;98.00
4505;DHT22;2265;48.794;9.520;2024-01-11T15:42:29;0.70;98.00
4505;DHT22;2265;48.794;9.520;2024-01-11T15:44:58;0.60;98.00
4505;DHT22;2265;48.794;9.520;2024-01-11T15:47:25;0.50;98.00
4505;DHT22;2265;48.794;9.520;2024-01-11T15:49:52;0.50;98.00
4505;DHT22;2265;48.794;9.520;2024-01-11T15:52:19;0.30;98.00
4505;DHT22;2265;48.794;9.520;2024-01-11T15:54:46;0.30;98.00
4505;DHT22;2265;48.794;9.520;2024-01-11T15:57:13;0.30;98.00
4505;DHT22;2265;48.794;9.520;2024-01-11T15:59:40;0.20;98.00
4505;DHT22;2265;48.794;9.520;2024-01-11T16:02:09;0.10;98.00
4505;DHT22;2265;48.794;9.520;2024-01-11T16:04:37;-0.10;98.00
4505;DHT22;2265;48.794;9.520;2024-01-11T16:07:05;-0.20;98.00
4505;DHT22;2265;48.794;9.520;2024-01-11T16:09:32;-0.30;98.00
4505;DHT22;2265;48.794;9.520;2024-01-11T16:12:02;-0.30;98.00